sensor_id;sensor_type;location;lat;lon;timestamp;pressure;altitude;pressure_sealevel;temperature;humidity
28310;BME280;15571;50.974;13.936;2023-09-08T00:03:06;100724.63;;;17.24;100.00
28310;BME280;15571;50.974;13.936;2023-09-08T00:06:08;100724.59;;;17.26;100.00
28310;BME280;15571;50.974;13.936;2023-09-08T00:09:11;100728.03;;;17.30;100.00
28310;BME280;15571;50.974;13.936;2023-09-08T00:12:13;100724.31;;;17.37;100.00
28310;BME280;15571;50.974;13.936;2023-09-08T00:15:15;100725.38;;;17.30;100.00
28310;BME280;15571;50.974;13.936;2023-09-08T00:18:18;100722.75;;;17.30;100.00
28310;BME280;15571;50.974;13.936;2023-09-08T00:21:21;100722.81;;;17.26;100.00
28310;BME280;15571;50.974;13.936;2023-09-08T00:24:23;100733.38;;;17.26;100.00
28310;BME280;15571;50.974;13.936;2023-09-08T00:27:25;100719.31;;;17.24;100.00
28310;BME280;15571;50.974;13.936;2023-09-08T00:30:28;100730.00;;;17.21;100.00
28310;BME280;15571;50.974;13.936;2023-09-08T00:33:31;100722.91;;;17.23;100.00
28310;BME280;15571;50.974;13.936;2023-09-08T00:36:34;100721.06;;;17.25;100.00
28310;BME280;15571;50.974;13.936;2023-09-08T00:39:39;100720.38;;;17.17;100.00
28310;BME280;15571;50.974;13.936;2023-09-08T00:42:43;100717.84;;;17.14;100.00
28310;BME280;15571;50.974;13.936;2023-09-08T00:45:45;100733.72;;;17.14;100.00
28310;BME280;15571;50.974;13.936;2023-09-08T00:48:49;100735.53;;;17.12;100.00
28310;BME280;15571;50.974;13.936;2023-09-08T00:51:51;100726.81;;;17.07;100.00
28310;BME280;15571;50.974;13.936;2023-09-08T00:54:55;100734.00;;;17.02;100.00
28310;BME280;15571;50.974;13.936;2023-09-08T00:57:57;100735.03;;;16.96;100.00
28310;BME280;15571;50.974;13.936;2023-09-08T01:01:00;100736.81;;;16.94;100.00
28310;BME280;15571;50.974;13.936;2023-09-08T01:04:03;100734.25;;;16.89;100.00
28310;BME280;15571;50.974;13.936;2023-09-08T01:07:06;100732.56;;;16.85;100.00
28310;BME280;15571;50.974;13.936;2023-09-08T01:10:08;100734.31;;;16.86;100.00
28310;BME280;15571;50.974;13.936;2023-09-08T01:13:10;100734.31;;;16.86;100.00
28310;BME280;15571;50.974;13.936;2023-09-08T01:16:12;100734.31;;;16.86;100.00
28310;BME280;15571;50.974;13.936;2023-09-08T01:19:18;100736.16;;;16.84;100.00
28310;BME280;15571;50.974;13.936;2023-09-08T01:22:23;100736.16;;;16.84;100.00
28310;BME280;15571;50.974;13.936;2023-09-08T01:25:27;100727.34;;;16.84;100.00
28310;BME280;15571;50.974;13.936;2023-09-08T01:28:30;100729.97;;;16.84;100.00
28310;BME280;15571;50.974;13.936;2023-09-08T01:31:33;100727.38;;;16.82;100.00
28310;BME280;15571;50.974;13.936;2023-09-08T01:34:35;100734.47;;;16.80;100.00
28310;BME280;15571;50.974;13.936;2023-09-08T01:37:40;100738.84;;;16.81;100.00
28310;BME280;15571;50.974;13.936;2023-09-08T01:40:44;100727.38;;;16.82;100.00
28310;BME280;15571;50.974;13.936;2023-09-08T01:43:46;100726.44;;;16.85;100.00
28310;BME280;15571;50.974;13.936;2023-09-08T01:46:48;100734.41;;;16.83;100.00
28310;BME280;15571;50.974;13.936;2023-09-08T01:49:51;100734.38;;;16.85;100.00
28310;BME280;15571;50.974;13.936;2023-09-08T01:52:53;100729.22;;;16.78;100.00
28310;BME280;15571;50.974;13.936;2023-09-08T01:55:58;100722.31;;;16.71;100.00
28310;BME280;15571;50.974;13.936;2023-09-08T01:59:01;100728.53;;;16.70;100.00
28310;BME280;15571;50.974;13.936;2023-09-08T02:02:04;100718.97;;;16.64;100.00
28310;BME280;15571;50.974;13.936;2023-09-08T02:05:08;100733.16;;;16.60;100.00
28310;BME280;15571;50.974;13.936;2023-09-08T02:08:09;100728.81;;;16.58;100.00
28310;BME280;15571;50.974;13.936;2023-09-08T02:11:14;100730.66;;;16.53;100.00
28310;BME280;15571;50.974;13.936;2023-09-08T02:14:16;100725.59;;;16.45;100.00
28310;BME280;15571;50.974;13.936;2023-09-08T02:17:18;100728.28;;;16.42;100.00
28310;BME280;15571;50.974;13.936;2023-09-08T02:20:20;100732.75;;;16.38;100.00
28310;BME280;15571;50.974;13.936;2023-09-08T02:23:22;100731.97;;;16.34;100.00
28310;BME280;15571;50.974;13.936;2023-09-08T02:26:25;100724.16;;;16.28;100.00
28310;BME280;15571;50.974;13.936;2023-09-08T02:29:28;100736.59;;;16.23;100.00
28310;BME280;15571;50.974;13.936;2023-09-08T02:32:31;100729.63;;;16.19;100.00
28310;BME280;15571;50.974;13.936;2023-09-08T02:35:37;100727.97;;;16.15;100.00
28310;BME280;15571;50.974;13.936;2023-09-08T02:38:43;100734.19;;;16.11;100.00
28310;BME280;15571;50.974;13.936;2023-09-08T02:41:47;100727.19;;;16.10;100.00
28310;BME280;15571;50.974;13.936;2023-09-08T02:44:51;100740.50;;;16.03;100.00
28310;BME280;15571;50.974;13.936;2023-09-08T02:47:54;100737.16;;;15.94;100.00
28310;BME280;15571;50.974;13.936;2023-09-08T02:50:56;100733.69;;;15.93;100.00
28310;BME280;15571;50.974;13.936;2023-09-08T02:53:58;100741.63;;;15.90;100.00
28310;BME280;15571;50.974;13.936;2023-09-08T02:57:01;100731.22;;;15.81;100.00
28310;BME280;15571;50.974;13.936;2023-09-08T03:00:03;100726.88;;;15.78;100.00
28310;BME280;15571;50.974;13.936;2023-09-08T03:03:05;100717.31;;;15.72;100.00
28310;BME280;15571;50.974;13.936;2023-09-08T03:06:08;100724.38;;;15.70;100.00
28310;BME280;15571;50.974;13.936;2023-09-08T03:09:10;100723.63;;;15.64;100.00
28310;BME280;15571;50.974;13.936;2023-09-08T03:12:14;100727.31;;;15.53;100.00
28310;BME280;15571;50.974;13.936;2023-09-08T03:15:16;100721.19;;;15.53;100.00
28310;BME280;15571;50.974;13.936;2023-09-08T03:18:18;100712.34;;;15.57;100.00
28310;BME280;15571;50.974;13.936;2023-09-08T03:21:20;100708.00;;;15.53;100.00
28310;BME280;15571;50.974;13.936;2023-09-08T03:24:22;100703.56;;;15.55;100.00
28310;BME280;15571;50.974;13.936;2023-09-08T03:27:25;100702.69;;;15.54;100.00
28310;BME280;15571;50.974;13.936;2023-09-08T03:30:28;100697.41;;;15.56;100.00
28310;BME280;15571;50.974;13.936;2023-09-08T03:33:30;100705.31;;;15.56;100.00
28310;BME280;15571;50.974;13.936;2023-09-08T03:36:33;100700.88;;;15.56;100.00
28310;BME280;15571;50.974;13.936;2023-09-08T03:39:37;100703.50;;;15.58;100.00
28310;BME280;15571;50.974;13.936;2023-09-08T03:42:43;100709.63;;;15.60;100.00
28310;BME280;15571;50.974;13.936;2023-09-08T03:45:48;100699.97;;;15.59;100.00
28310;BME280;15571;50.974;13.936;2023-09-08T03:49:01;100705.28;;;15.57;100.00
28310;BME280;15571;50.974;13.936;2023-09-08T03:52:04;100693.06;;;15.52;100.00
28310;BME280;15571;50.974;13.936;2023-09-08T03:55:09;100693.09;;;15.49;100.00
28310;BME280;15571;50.974;13.936;2023-09-08T03:58:25;100698.50;;;15.43;100.00
28310;BME280;15571;50.974;13.936;2023-09-08T04:01:28;100695.03;;;15.40;100.00
28310;BME280;15571;50.974;13.936;2023-09-08T04:04:31;100697.66;;;15.40;100.00
28310;BME280;15571;50.974;13.936;2023-09-08T04:07:36;100702.94;;;15.40;100.00
28310;BME280;15571;50.974;13.936;2023-09-08T04:10:39;100695.91;;;15.41;100.00
28310;BME280;15571;50.974;13.936;2023-09-08T04:13:43;100691.53;;;15.38;100.00
28310;BME280;15571;50.974;13.936;2023-09-08T04:16:46;100686.34;;;15.35;100.00
28310;BME280;15571;50.974;13.936;2023-09-08T04:19:49;100693.41;;;15.33;100.00
28310;BME280;15571;50.974;13.936;2023-09-08T04:22:52;100690.88;;;15.25;100.00
28310;BME280;15571;50.974;13.936;2023-09-08T04:25:56;100694.56;;;15.17;100.00
28310;BME280;15571;50.974;13.936;2023-09-08T04:29:01;100694.56;;;15.17;100.00
28310;BME280;15571;50.974;13.936;2023-09-08T04:32:04;100692.84;;;15.14;100.00
28310;BME280;15571;50.974;13.936;2023-09-08T04:35:09;100699.91;;;15.12;100.00
28310;BME280;15571;50.974;13.936;2023-09-08T04:38:13;100696.50;;;15.04;100.00
28310;BME280;15571;50.974;13.936;2023-09-08T04:41:17;100693.97;;;14.99;100.00
28310;BME280;15571;50.974;13.936;2023-09-08T04:44:21;100697.44;;;15.01;100.00
28310;BME280;15571;50.974;13.936;2023-09-08T04:47:23;100695.66;;;15.03;100.00
28310;BME280;15571;50.974;13.936;2023-09-08T04:50:25;100702.59;;;15.09;100.00
28310;BME280;15571;50.974;13.936;2023-09-08T04:53:27;100699.09;;;15.08;100.00
28310;BME280;15571;50.974;13.936;2023-09-08T04:56:30;100702.63;;;15.07;100.00
28310;BME280;15571;50.974;13.936;2023-09-08T04:59:33;100698.22;;;15.08;100.00
28310;BME280;15571;50.974;13.936;2023-09-08T05:02:38;100711.28;;;15.16;100.00
28310;BME280;15571;50.974;13.936;2023-09-08T05:05:40;100709.47;;;15.19;100.00
28310;BME280;15571;50.974;13.936;2023-09-08T05:08:42;100707.69;;;15.20;100.00
28310;BME280;15571;50.974;13.936;2023-09-08T05:11:45;100715.59;;;15.20;100.00
28310;BME280;15571;50.974;13.936;2023-09-08T05:14:48;100707.63;;;15.23;100.00
28310;BME280;15571;50.974;13.936;2023-09-08T05:17:56;100711.97;;;15.25;100.00
28310;BME280;15571;50.974;13.936;2023-09-08T05:21:00;100711.97;;;15.27;100.00
28310;BME280;15571;50.974;13.936;2023-09-08T05:24:04;100710.13;;;15.32;100.00
28310;BME280;15571;50.974;13.936;2023-09-08T05:27:06;100715.34;;;15.34;100.00
28310;BME280;15571;50.974;13.936;2023-09-08T05:30:11;100716.19;;;15.37;100.00
28310;BME280;15571;50.974;13.936;2023-09-08T05:33:13;100715.22;;;15.41;100.00
28310;BME280;15571;50.974;13.936;2023-09-08T05:36:16;100720.44;;;15.46;100.00
28310;BME280;15571;50.974;13.936;2023-09-08T05:39:18;100714.16;;;15.52;100.00
28310;BME280;15571;50.974;13.936;2023-09-08T05:42:21;100720.25;;;15.57;100.00
28310;BME280;15571;50.974;13.936;2023-09-08T05:45:26;100717.53;;;15.60;100.00
28310;BME280;15571;50.974;13.936;2023-09-08T05:48:28;100722.63;;;15.69;100.00
28310;BME280;15571;50.974;13.936;2023-09-08T05:51:32;100723.34;;;15.78;100.00
28310;BME280;15571;50.974;13.936;2023-09-08T05:54:35;100717.97;;;15.87;100.00
28310;BME280;15571;50.974;13.936;2023-09-08T05:57:38;100715.00;;;16.02;100.00
28310;BME280;15571;50.974;13.936;2023-09-08T06:00:43;100718.22;;;16.17;100.00
28310;BME280;15571;50.974;13.936;2023-09-08T06:03:45;100714.47;;;16.27;100.00
28310;BME280;15571;50.974;13.936;2023-09-08T06:06:49;100723.94;;;16.38;100.00
28310;BME280;15571;50.974;13.936;2023-09-08T06:09:51;100712.25;;;16.49;100.00
28310;BME280;15571;50.974;13.936;2023-09-08T06:12:53;100718.16;;;16.61;100.00
28310;BME280;15571;50.974;13.936;2023-09-08T06:15:57;100710.06;;;16.69;100.00
28310;BME280;15571;50.974;13.936;2023-09-08T06:18:59;100699.41;;;16.72;100.00
28310;BME280;15571;50.974;13.936;2023-09-08T06:22:04;100697.53;;;16.77;100.00
28310;BME280;15571;50.974;13.936;2023-09-08T06:25:07;100697.19;;;16.92;100.00
28310;BME280;15571;50.974;13.936;2023-09-08T06:28:10;100695.41;;;16.94;100.00
28310;BME280;15571;50.974;13.936;2023-09-08T06:31:13;100690.00;;;16.98;100.00
28310;BME280;15571;50.974;13.936;2023-09-08T06:34:17;100692.47;;;17.05;100.00
28310;BME280;15571;50.974;13.936;2023-09-08T06:37:21;100693.19;;;17.12;100.00
28310;BME280;15571;50.974;13.936;2023-09-08T06:40:23;100692.06;;;17.21;100.00
28310;BME280;15571;50.974;13.936;2023-09-08T06:43:26;100685.63;;;17.33;100.00
28310;BME280;15571;50.974;13.936;2023-09-08T06:46:40;100684.75;;;17.65;100.00
28310;BME280;15571;50.974;13.936;2023-09-08T06:49:43;100683.97;;;17.62;100.00
28310;BME280;15571;50.974;13.936;2023-09-08T06:52:45;100686.38;;;17.71;100.00
28310;BME280;15571;50.974;13.936;2023-09-08T06:55:47;100687.28;;;17.68;100.00
28310;BME280;15571;50.974;13.936;2023-09-08T06:58:48;100694.31;;;17.69;100.00
28310;BME280;15571;50.974;13.936;2023-09-08T07:01:52;100685.41;;;17.73;100.00
28310;BME280;15571;50.974;13.936;2023-09-08T07:04:54;100687.84;;;17.81;100.00
28310;BME280;15571;50.974;13.936;2023-09-08T07:07:57;100685.41;;;18.05;100.00
28310;BME280;15571;50.974;13.936;2023-09-08T07:10:59;100687.44;;;18.27;100.00
28310;BME280;15571;50.974;13.936;2023-09-08T07:14:01;100677.28;;;18.41;100.00
28310;BME280;15571;50.974;13.936;2023-09-08T07:17:05;100680.75;;;18.43;100.00
28310;BME280;15571;50.974;13.936;2023-09-08T07:20:07;100689.22;;;18.55;100.00
28310;BME280;15571;50.974;13.936;2023-09-08T07:23:09;100681.41;;;18.51;100.00
28310;BME280;15571;50.974;13.936;2023-09-08T07:26:12;100687.50;;;18.54;100.00
28310;BME280;15571;50.974;13.936;2023-09-08T07:29:14;100686.22;;;18.67;100.00
28310;BME280;15571;50.974;13.936;2023-09-08T07:32:18;100690.63;;;18.66;100.00
28310;BME280;15571;50.974;13.936;2023-09-08T07:35:23;100685.53;;;18.87;100.00
28310;BME280;15571;50.974;13.936;2023-09-08T07:38:25;100688.44;;;19.08;100.00
28310;BME280;15571;50.974;13.936;2023-09-08T07:41:27;100678.28;;;18.94;100.00
28310;BME280;15571;50.974;13.936;2023-09-08T07:44:29;100691.75;;;18.88;100.00
28310;BME280;15571;50.974;13.936;2023-09-08T07:47:33;100684.78;;;19.12;100.00
28310;BME280;15571;50.974;13.936;2023-09-08T07:50:36;100691.84;;;19.38;100.00
28310;BME280;15571;50.974;13.936;2023-09-08T07:53:38;100680.31;;;19.39;100.00
28310;BME280;15571;50.974;13.936;2023-09-08T07:56:40;100690.44;;;19.28;100.00
28310;BME280;15571;50.974;13.936;2023-09-08T07:59:42;100688.56;;;19.30;100.00
28310;BME280;15571;50.974;13.936;2023-09-08T08:02:47;100684.06;;;19.59;100.00
28310;BME280;15571;50.974;13.936;2023-09-08T08:05:50;100691.72;;;19.67;100.00
28310;BME280;15571;50.974;13.936;2023-09-08T08:08:52;100686.16;;;19.74;100.00
28310;BME280;15571;50.974;13.936;2023-09-08T08:11:54;100686.66;;;19.60;100.00
28310;BME280;15571;50.974;13.936;2023-09-08T08:14:56;100686.47;;;19.65;100.00
28310;BME280;15571;50.974;13.936;2023-09-08T08:18:03;100687.31;;;19.67;100.00
28310;BME280;15571;50.974;13.936;2023-09-08T08:21:06;100686.53;;;19.89;100.00
28310;BME280;15571;50.974;13.936;2023-09-08T08:24:08;100684.00;;;19.86;100.00
28310;BME280;15571;50.974;13.936;2023-09-08T08:27:11;100676.78;;;19.89;100.00
28310;BME280;15571;50.974;13.936;2023-09-08T08:30:13;100677.28;;;19.99;100.00
28310;BME280;15571;50.974;13.936;2023-09-08T08:33:19;100668.63;;;19.94;100.00
28310;BME280;15571;50.974;13.936;2023-09-08T08:36:22;100670.66;;;20.11;100.00
28310;BME280;15571;50.974;13.936;2023-09-08T08:39:24;100664.25;;;20.17;100.00
28310;BME280;15571;50.974;13.936;2023-09-08T08:42:30;100663.78;;;20.51;100.00
28310;BME280;15571;50.974;13.936;2023-09-08T08:45:32;100659.13;;;20.34;100.00
28310;BME280;15571;50.974;13.936;2023-09-08T08:48:36;100663.28;;;20.42;100.00
28310;BME280;15571;50.974;13.936;2023-09-08T08:51:43;100659.78;;;20.41;100.00
28310;BME280;15571;50.974;13.936;2023-09-08T08:54:45;100658.97;;;20.61;100.00
28310;BME280;15571;50.974;13.936;2023-09-08T08:57:47;100653.88;;;20.99;100.00
28310;BME280;15571;50.974;13.936;2023-09-08T09:00:49;100660.53;;;21.10;100.00
28310;BME280;15571;50.974;13.936;2023-09-08T09:03:52;100660.28;;;21.16;100.00
28310;BME280;15571;50.974;13.936;2023-09-08T09:06:54;100646.41;;;21.08;100.00
28310;BME280;15571;50.974;13.936;2023-09-08T09:09:56;100647.53;;;21.02;100.00
28310;BME280;15571;50.974;13.936;2023-09-08T09:13:01;100656.59;;;20.98;100.00
28310;BME280;15571;50.974;13.936;2023-09-08T09:16:03;100648.34;;;21.04;100.00
28310;BME280;15571;50.974;13.936;2023-09-08T09:19:10;100650.50;;;21.17;100.00
28310;BME280;15571;50.974;13.936;2023-09-08T09:22:19;100642.84;;;21.29;100.00
28310;BME280;15571;50.974;13.936;2023-09-08T09:25:22;100633.44;;;21.41;100.00
28310;BME280;15571;50.974;13.936;2023-09-08T09:28:25;100629.13;;;21.39;100.00
28310;BME280;15571;50.974;13.936;2023-09-08T09:31:30;100627.59;;;21.33;100.00
28310;BME280;15571;50.974;13.936;2023-09-08T09:34:38;100634.44;;;21.39;100.00
28310;BME280;15571;50.974;13.936;2023-09-08T09:37:48;100626.13;;;21.46;100.00
28310;BME280;15571;50.974;13.936;2023-09-08T09:40:50;100615.91;;;21.56;100.00
28310;BME280;15571;50.974;13.936;2023-09-08T09:43:52;100616.53;;;21.63;100.00
28310;BME280;15571;50.974;13.936;2023-09-08T09:46:54;100614.97;;;21.78;100.00
28310;BME280;15571;50.974;13.936;2023-09-08T09:49:57;100615.13;;;21.94;100.00
28310;BME280;15571;50.974;13.936;2023-09-08T09:53:00;100606.41;;;21.90;100.00
28310;BME280;15571;50.974;13.936;2023-09-08T09:56:02;100602.00;;;21.89;100.00
28310;BME280;15571;50.974;13.936;2023-09-08T09:59:04;100595.63;;;21.94;100.00
28310;BME280;15571;50.974;13.936;2023-09-08T10:02:09;100603.44;;;21.97;100.00
28310;BME280;15571;50.974;13.936;2023-09-08T10:05:15;100605.19;;;21.98;100.00
28310;BME280;15571;50.974;13.936;2023-09-08T10:08:17;100597.22;;;22.15;100.00
28310;BME280;15571;50.974;13.936;2023-09-08T10:11:20;100610.78;;;22.11;100.00
28310;BME280;15571;50.974;13.936;2023-09-08T10:14:23;100611.66;;;22.11;100.00
28310;BME280;15571;50.974;13.936;2023-09-08T10:17:28;100603.50;;;22.14;100.00
28310;BME280;15571;50.974;13.936;2023-09-08T10:20:34;100597.59;;;22.27;100.00
28310;BME280;15571;50.974;13.936;2023-09-08T10:23:38;100595.81;;;22.27;100.00
28310;BME280;15571;50.974;13.936;2023-09-08T10:26:43;100602.13;;;22.24;100.00
28310;BME280;15571;50.974;13.936;2023-09-08T10:29:48;100592.19;;;22.28;100.00
28310;BME280;15571;50.974;13.936;2023-09-08T10:32:50;100592.47;;;22.22;100.00
28310;BME280;15571;50.974;13.936;2023-09-08T10:35:53;100587.41;;;22.35;100.00
28310;BME280;15571;50.974;13.936;2023-09-08T10:39:12;100587.72;;;22.29;100.00
28310;BME280;15571;50.974;13.936;2023-09-08T10:42:28;100588.28;;;22.35;100.00
28310;BME280;15571;50.974;13.936;2023-09-08T10:45:30;100585.28;;;22.43;100.00
28310;BME280;15571;50.974;13.936;2023-09-08T10:48:39;100583.38;;;22.45;100.00
28310;BME280;15571;50.974;13.936;2023-09-08T10:51:42;100578.03;;;22.45;100.00
28310;BME280;15571;50.974;13.936;2023-09-08T10:54:47;100576.03;;;22.50;100.00
28310;BME280;15571;50.974;13.936;2023-09-08T10:57:49;100577.59;;;22.54;100.00
28310;BME280;15571;50.974;13.936;2023-09-08T11:00:56;100565.97;;;22.56;100.00
28310;BME280;15571;50.974;13.936;2023-09-08T11:04:01;100570.22;;;22.60;100.00
28310;BME280;15571;50.974;13.936;2023-09-08T11:07:10;100566.16;;;22.70;100.00
28310;BME280;15571;50.974;13.936;2023-09-08T11:10:12;100574.31;;;22.84;100.00
28310;BME280;15571;50.974;13.936;2023-09-08T11:13:17;100568.66;;;22.91;100.00
28310;BME280;15571;50.974;13.936;2023-09-08T11:16:19;100562.38;;;22.92;100.00
28310;BME280;15571;50.974;13.936;2023-09-08T11:19:42;100564.19;;;22.91;100.00
28310;BME280;15571;50.974;13.936;2023-09-08T11:22:45;100570.06;;;22.98;100.00
28310;BME280;15571;50.974;13.936;2023-09-08T11:25:49;100562.38;;;22.92;100.00
28310;BME280;15571;50.974;13.936;2023-09-08T11:28:51;100568.19;;;23.00;100.00
28310;BME280;15571;50.974;13.936;2023-09-08T11:31:54;100555.63;;;23.02;100.00
28310;BME280;15571;50.974;13.936;2023-09-08T11:34:56;100558.50;;;22.97;100.00
28310;BME280;15571;50.974;13.936;2023-09-08T11:38:09;100558.75;;;23.10;100.00
28310;BME280;15571;50.974;13.936;2023-09-08T11:41:14;100544.13;;;23.17;100.00
28310;BME280;15571;50.974;13.936;2023-09-08T11:44:17;100546.16;;;23.12;100.00
28310;BME280;15571;50.974;13.936;2023-09-08T11:47:22;100550.66;;;23.12;100.00
28310;BME280;15571;50.974;13.936;2023-09-08T11:50:24;100546.16;;;23.12;100.00
28310;BME280;15571;50.974;13.936;2023-09-08T11:53:28;100538.78;;;23.17;100.00
28310;BME280;15571;50.974;13.936;2023-09-08T11:56:36;100543.16;;;23.36;100.00
28310;BME280;15571;50.974;13.936;2023-09-08T11:59:39;100531.88;;;23.31;100.00
28310;BME280;15571;50.974;13.936;2023-09-08T12:02:42;100531.28;;;23.42;100.00
28310;BME280;15571;50.974;13.936;2023-09-08T12:05:44;100535.78;;;23.41;100.00
28310;BME280;15571;50.974;13.936;2023-09-08T12:08:50;100531.38;;;23.40;100.00
28310;BME280;15571;50.974;13.936;2023-09-08T12:11:55;100530.94;;;23.48;100.00
28310;BME280;15571;50.974;13.936;2023-09-08T12:14:57;100526.13;;;23.55;100.00
28310;BME280;15571;50.974;13.936;2023-09-08T12:18:00;100533.56;;;23.50;100.00
28310;BME280;15571;50.974;13.936;2023-09-08T12:21:03;100524.78;;;23.80;100.00
28310;BME280;15571;50.974;13.936;2023-09-08T12:24:08;100515.34;;;23.72;100.00
28310;BME280;15571;50.974;13.936;2023-09-08T12:27:13;100507.53;;;23.85;100.00
28310;BME280;15571;50.974;13.936;2023-09-08T12:30:16;100509.94;;;23.90;100.00
28310;BME280;15571;50.974;13.936;2023-09-08T12:33:19;100512.38;;;23.78;100.00
28310;BME280;15571;50.974;13.936;2023-09-08T12:36:21;100508.22;;;23.89;100.00
28310;BME280;15571;50.974;13.936;2023-09-08T12:39:24;100498.94;;;23.96;100.00
28310;BME280;15571;50.974;13.936;2023-09-08T12:42:26;100503.41;;;23.96;100.00
28310;BME280;15571;50.974;13.936;2023-09-08T12:45:29;100500.88;;;23.92;100.00
28310;BME280;15571;50.974;13.936;2023-09-08T12:48:38;100491.22;;;23.90;100.00
28310;BME280;15571;50.974;13.936;2023-09-08T12:51:40;100489.25;;;24.09;100.00
28310;BME280;15571;50.974;13.936;2023-09-08T12:54:43;100481.97;;;24.12;100.00
28310;BME280;15571;50.974;13.936;2023-09-08T12:57:45;100481.81;;;24.15;100.00
28310;BME280;15571;50.974;13.936;2023-09-08T13:00:53;100476.19;;;24.50;100.00
28310;BME280;15571;50.974;13.936;2023-09-08T13:03:56;100476.94;;;24.37;100.00
28310;BME280;15571;50.974;13.936;2023-09-08T13:07:00;100475.06;;;24.23;100.00
28310;BME280;15571;50.974;13.936;2023-09-08T13:10:10;100469.38;;;24.14;100.00
28310;BME280;15571;50.974;13.936;2023-09-08T13:13:12;100470.81;;;24.35;100.00
28310;BME280;15571;50.974;13.936;2023-09-08T13:16:16;100472.47;;;24.22;100.00
28310;BME280;15571;50.974;13.936;2023-09-08T13:19:18;100462.94;;;24.32;100.00
28310;BME280;15571;50.974;13.936;2023-09-08T13:22:20;100471.94;;;24.31;100.00
28310;BME280;15571;50.974;13.936;2023-09-08T13:25:23;100471.25;;;24.28;100.00
28310;BME280;15571;50.974;13.936;2023-09-08T13:28:28;100464.22;;;24.41;100.00
28310;BME280;15571;50.974;13.936;2023-09-08T13:31:30;100470.91;;;24.34;100.00
28310;BME280;15571;50.974;13.936;2023-09-08T13:34:32;100460.91;;;24.52;100.00
28310;BME280;15571;50.974;13.936;2023-09-08T13:37:34;100459.56;;;24.59;100.00
28310;BME280;15571;50.974;13.936;2023-09-08T13:40:39;100463.00;;;24.61;100.00
28310;BME280;15571;50.974;13.936;2023-09-08T13:43:42;100463.06;;;24.45;100.00
28310;BME280;15571;50.974;13.936;2023-09-08T13:46:45;100458.09;;;24.39;100.00
28310;BME280;15571;50.974;13.936;2023-09-08T13:49:47;100458.66;;;24.30;100.00
28310;BME280;15571;50.974;13.936;2023-09-08T13:52:49;100459.09;;;24.22;100.00
28310;BME280;15571;50.974;13.936;2023-09-08T13:55:55;100451.44;;;24.16;100.00
28310;BME280;15571;50.974;13.936;2023-09-08T13:58:57;100454.59;;;24.38;100.00
28310;BME280;15571;50.974;13.936;2023-09-08T14:02:01;100451.03;;;24.38;100.00
28310;BME280;15571;50.974;13.936;2023-09-08T14:05:05;100449.31;;;24.37;100.00
28310;BME280;15571;50.974;13.936;2023-09-08T14:08:07;100450.84;;;24.41;100.00
28310;BME280;15571;50.974;13.936;2023-09-08T14:11:12;100449.41;;;24.50;100.00
28310;BME280;15571;50.974;13.936;2023-09-08T14:14:14;100441.38;;;24.35;100.00
28310;BME280;15571;50.974;13.936;2023-09-08T14:17:22;100439.47;;;24.37;100.00
28310;BME280;15571;50.974;13.936;2023-09-08T14:20:25;100450.19;;;24.37;100.00
28310;BME280;15571;50.974;13.936;2023-09-08T14:23:29;100441.16;;;24.24;100.00
28310;BME280;15571;50.974;13.936;2023-09-08T14:26:33;100438.47;;;24.24;100.00
28310;BME280;15571;50.974;13.936;2023-09-08T14:29:35;100436.06;;;24.19;100.00
28310;BME280;15571;50.974;13.936;2023-09-08T14:32:37;100438.47;;;24.24;100.00
28310;BME280;15571;50.974;13.936;2023-09-08T14:35:41;100432.63;;;24.17;100.00
28310;BME280;15571;50.974;13.936;2023-09-08T14:38:43;100436.06;;;24.19;100.00
28310;BME280;15571;50.974;13.936;2023-09-08T14:41:46;100435.03;;;24.22;100.00
28310;BME280;15571;50.974;13.936;2023-09-08T14:44:51;100434.63;;;24.14;100.00
28310;BME280;15571;50.974;13.936;2023-09-08T14:47:53;100434.19;;;24.21;100.00
28310;BME280;15571;50.974;13.936;2023-09-08T14:50:56;100430.63;;;24.21;100.00
28310;BME280;15571;50.974;13.936;2023-09-08T14:53:58;100428.84;;;24.21;100.00
28310;BME280;15571;50.974;13.936;2023-09-08T14:57:01;100432.41;;;24.36;100.00
28310;BME280;15571;50.974;13.936;2023-09-08T15:00:03;100420.34;;;24.29;100.00
28310;BME280;15571;50.974;13.936;2023-09-08T15:03:05;100427.06;;;24.36;100.00
28310;BME280;15571;50.974;13.936;2023-09-08T15:06:07;100423.44;;;24.37;100.00
28310;BME280;15571;50.974;13.936;2023-09-08T15:09:15;100421.19;;;24.30;100.00
28310;BME280;15571;50.974;13.936;2023-09-08T15:12:18;100424.56;;;24.33;100.00
28310;BME280;15571;50.974;13.936;2023-09-08T15:15:26;100426.84;;;24.39;100.00
28310;BME280;15571;50.974;13.936;2023-09-08T15:18:28;100425.59;;;24.31;100.00
28310;BME280;15571;50.974;13.936;2023-09-08T15:21:37;100418.75;;;24.41;100.00
28310;BME280;15571;50.974;13.936;2023-09-08T15:24:42;100425.63;;;24.45;100.00
28310;BME280;15571;50.974;13.936;2023-09-08T15:27:46;100421.81;;;24.49;100.00
28310;BME280;15571;50.974;13.936;2023-09-08T15:30:48;100422.38;;;24.40;100.00
28310;BME280;15571;50.974;13.936;2023-09-08T15:33:52;100422.38;;;24.54;100.00
28310;BME280;15571;50.974;13.936;2023-09-08T15:36:54;100418.97;;;24.67;100.00